sensor_id;sensor_type;location;lat;lon;timestamp;temperature;humidity
23010;DHT22;11671;49.990;8.028;2023-11-22T00:01:04;7.90;99.90
23010;DHT22;11671;49.990;8.028;2023-11-22T00:03:30;8.00;99.90
23010;DHT22;11671;49.990;8.028;2023-11-22T00:05:56;8.00;99.90
23010;DHT22;11671;49.990;8.028;2023-11-22T00:08:22;8.00;99.90
23010;DHT22;11671;49.990;8.028;2023-11-22T00:10:47;8.00;99.90
23010;DHT22;11671;49.990;8.028;2023-11-22T00:13:13;8.00;99.90
23010;DHT22;11671;49.990;8.028;2023-11-22T00:15:38;8.00;99.90
23010;DHT22;11671;49.990;8.028;2023-11-22T00:18:03;8.00;99.90
23010;DHT22;11671;49.990;8.028;2023-11-22T00:20:29;8.10;99.90
23010;DHT22;11671;49.990;8.028;2023-11-22T00:22:55;8.10;99.90
23010;DHT22;11671;49.990;8.028;2023-11-22T00:25:21;8.00;99.90
23010;DHT22;11671;49.990;8.028;2023-11-22T00:27:47;8.00;99.90
23010;DHT22;11671;49.990;8.028;2023-11-22T00:30:13;8.00;99.90
23010;DHT22;11671;49.990;8.028;2023-11-22T00:32:38;8.00;99.90
23010;DHT22;11671;49.990;8.028;2023-11-22T00:35:06;8.00;99.90
23010;DHT22;11671;49.990;8.028;2023-11-22T00:37:33;8.00;99.90
23010;DHT22;11671;49.990;8.028;2023-11-22T00:40:00;8.00;99.90
23010;DHT22;11671;49.990;8.028;2023-11-22T00:42:26;7.90;99.90
23010;DHT22;11671;49.990;8.028;2023-11-22T00:44:52;7.90;99.90
23010;DHT22;11671;49.990;8.028;2023-11-22T00:47:18;7.80;99.90
23010;DHT22;11671;49.990;8.028;2023-11-22T00:49:44;7.80;99.90
23010;DHT22;11671;49.990;8.028;2023-11-22T00:52:09;7.80;99.90
23010;DHT22;11671;49.990;8.028;2023-11-22T00:54:35;7.60;99.90
23010;DHT22;11671;49.990;8.028;2023-11-22T00:57:00;7.50;99.90
23010;DHT22;11671;49.990;8.028;2023-11-22T00:59:26;7.50;99.90
23010;DHT22;11671;49.990;8.028;2023-11-22T01:01:52;7.40;99.90
23010;DHT22;11671;49.990;8.028;2023-11-22T01:04:17;7.30;99.90
23010;DHT22;11671;49.990;8.028;2023-11-22T01:06:43;7.20;99.90
23010;DHT22;11671;49.990;8.028;2023-11-22T01:09:08;7.20;99.90
23010;DHT22;11671;49.990;8.028;2023-11-22T01:11:34;7.20;99.90
23010;DHT22;11671;49.990;8.028;2023-11-22T01:14:00;7.10;99.90
23010;DHT22;11671;49.990;8.028;2023-11-22T01:16:26;7.00;99.90
23010;DHT22;11671;49.990;8.028;2023-11-22T01:18:51;6.90;99.90
23010;DHT22;11671;49.990;8.028;2023-11-22T01:21:18;6.90;99.90
23010;DHT22;11671;49.990;8.028;2023-11-22T01:23:44;6.90;99.90
23010;DHT22;11671;49.990;8.028;2023-11-22T01:26:11;6.80;99.90
23010;DHT22;11671;49.990;8.028;2023-11-22T01:28:36;6.80;99.90
23010;DHT22;11671;49.990;8.028;2023-11-22T01:31:02;6.80;99.90
23010;DHT22;11671;49.990;8.028;2023-11-22T01:33:29;6.80;99.90
23010;DHT22;11671;49.990;8.028;2023-11-22T01:35:54;6.80;99.90
23010;DHT22;11671;49.990;8.028;2023-11-22T01:38:20;6.80;99.90
23010;DHT22;11671;49.990;8.028;2023-11-22T01:40:46;6.80;99.90
23010;DHT22;11671;49.990;8.028;2023-11-22T01:43:14;6.80;99.90
23010;DHT22;11671;49.990;8.028;2023-11-22T01:45:40;6.70;99.90
23010;DHT22;11671;49.990;8.028;2023-11-22T01:48:06;6.80;99.90
23010;DHT22;11671;49.990;8.028;2023-11-22T01:50:32;6.70;99.90
23010;DHT22;11671;49.990;8.028;2023-11-22T01:52:58;6.70;99.90
23010;DHT22;11671;49.990;8.028;2023-11-22T01:55:24;6.80;99.90
23010;DHT22;11671;49.990;8.028;2023-11-22T01:57:50;6.70;99.90
23010;DHT22;11671;49.990;8.028;2023-11-22T02:00:15;6.70;99.90
23010;DHT22;11671;49.990;8.028;2023-11-22T02:02:41;6.70;99.90
23010;DHT22;11671;49.990;8.028;2023-11-22T02:05:08;6.70;99.90
23010;DHT22;11671;49.990;8.028;2023-11-22T02:07:33;6.70;99.90
23010;DHT22;11671;49.990;8.028;2023-11-22T02:09:59;6.60;99.90
23010;DHT22;11671;49.990;8.028;2023-11-22T02:12:24;6.60;99.90
23010;DHT22;11671;49.990;8.028;2023-11-22T02:14:50;6.60;99.90
23010;DHT22;11671;49.990;8.028;2023-11-22T02:17:15;6.70;99.90
23010;DHT22;11671;49.990;8.028;2023-11-22T02:19:42;6.70;99.90
23010;DHT22;11671;49.990;8.028;2023-11-22T02:22:08;6.60;99.90
23010;DHT22;11671;49.990;8.028;2023-11-22T02:24:33;6.70;99.90
23010;DHT22;11671;49.990;8.028;2023-11-22T02:27:00;6.70;99.90
23010;DHT22;11671;49.990;8.028;2023-11-22T02:29:25;6.80;99.90
23010;DHT22;11671;49.990;8.028;2023-11-22T02:31:50;6.90;99.90
23010;DHT22;11671;49.990;8.028;2023-11-22T02:34:16;6.90;99.90
23010;DHT22;11671;49.990;8.028;2023-11-22T02:36:42;6.90;99.90
23010;DHT22;11671;49.990;8.028;2023-11-22T02:39:08;7.00;99.90
23010;DHT22;11671;49.990;8.028;2023-11-22T02:41:34;7.00;99.90
23010;DHT22;11671;49.990;8.028;2023-11-22T02:44:00;7.00;99.90
23010;DHT22;11671;49.990;8.028;2023-11-22T02:46:25;7.00;99.90
23010;DHT22;11671;49.990;8.028;2023-11-22T02:48:51;6.90;99.90
23010;DHT22;11671;49.990;8.028;2023-11-22T02:51:19;6.90;99.90
23010;DHT22;11671;49.990;8.028;2023-11-22T02:53:46;6.80;99.90
23010;DHT22;11671;49.990;8.028;2023-11-22T02:56:13;6.80;99.90
23010;DHT22;11671;49.990;8.028;2023-11-22T02:58:39;6.80;99.90
23010;DHT22;11671;49.990;8.028;2023-11-22T03:01:04;6.70;99.90
23010;DHT22;11671;49.990;8.028;2023-11-22T03:03:30;6.80;99.90
23010;DHT22;11671;49.990;8.028;2023-11-22T03:05:55;6.70;99.90
23010;DHT22;11671;49.990;8.028;2023-11-22T03:08:21;6.70;99.90
23010;DHT22;11671;49.990;8.028;2023-11-22T03:10:47;6.70;99.90
23010;DHT22;11671;49.990;8.028;2023-11-22T03:13:12;6.70;99.90
23010;DHT22;11671;49.990;8.028;2023-11-22T03:15:38;6.70;99.90
23010;DHT22;11671;49.990;8.028;2023-11-22T03:18:04;6.70;99.90
23010;DHT22;11671;49.990;8.028;2023-11-22T03:20:31;6.70;99.90
23010;DHT22;11671;49.990;8.028;2023-11-22T03:22:58;6.60;99.90
23010;DHT22;11671;49.990;8.028;2023-11-22T03:25:23;6.60;99.90
23010;DHT22;11671;49.990;8.028;2023-11-22T03:27:49;6.50;99.90
23010;DHT22;11671;49.990;8.028;2023-11-22T03:30:14;6.50;99.90
23010;DHT22;11671;49.990;8.028;2023-11-22T03:32:40;6.50;99.90
23010;DHT22;11671;49.990;8.028;2023-11-22T03:35:06;6.50;99.90
23010;DHT22;11671;49.990;8.028;2023-11-22T03:37:32;6.50;99.90
23010;DHT22;11671;49.990;8.028;2023-11-22T03:39:58;6.50;99.90
23010;DHT22;11671;49.990;8.028;2023-11-22T03:42:23;6.40;99.90
23010;DHT22;11671;49.990;8.028;2023-11-22T03:44:49;6.40;99.90
23010;DHT22;11671;49.990;8.028;2023-11-22T03:47:15;6.30;99.90
23010;DHT22;11671;49.990;8.028;2023-11-22T03:49:41;6.30;99.90
23010;DHT22;11671;49.990;8.028;2023-11-22T03:52:08;6.30;99.90
23010;DHT22;11671;49.990;8.028;2023-11-22T03:54:34;6.30;99.90
23010;DHT22;11671;49.990;8.028;2023-11-22T03:56:59;6.30;99.90
23010;DHT22;11671;49.990;8.028;2023-11-22T03:59:25;6.30;99.90
23010;DHT22;11671;49.990;8.028;2023-11-22T04:01:50;6.20;99.90
23010;DHT22;11671;49.990;8.028;2023-11-22T04:04:16;6.20;99.90
23010;DHT22;11671;49.990;8.028;2023-11-22T04:06:41;6.20;99.90
23010;DHT22;11671;49.990;8.028;2023-11-22T04:09:07;6.30;99.90
23010;DHT22;11671;49.990;8.028;2023-11-22T04:11:33;6.20;99.90
23010;DHT22;11671;49.990;8.028;2023-11-22T04:14:00;6.10;99.90
23010;DHT22;11671;49.990;8.028;2023-11-22T04:16:25;6.00;99.90
23010;DHT22;11671;49.990;8.028;2023-11-22T04:18:51;6.00;99.90
23010;DHT22;11671;49.990;8.028;2023-11-22T04:21:16;6.00;99.90
23010;DHT22;11671;49.990;8.028;2023-11-22T04:23:42;6.10;99.90
23010;DHT22;11671;49.990;8.028;2023-11-22T04:26:08;6.10;99.90
23010;DHT22;11671;49.990;8.028;2023-11-22T04:28:33;6.00;99.90
23010;DHT22;11671;49.990;8.028;2023-11-22T04:30:59;5.90;99.90
23010;DHT22;11671;49.990;8.028;2023-11-22T04:33:25;5.90;99.90
23010;DHT22;11671;49.990;8.028;2023-11-22T04:35:54;6.00;99.90
23010;DHT22;11671;49.990;8.028;2023-11-22T04:38:20;6.00;99.90
23010;DHT22;11671;49.990;8.028;2023-11-22T04:40:45;6.00;99.90
23010;DHT22;11671;49.990;8.028;2023-11-22T04:43:11;6.00;99.90
23010;DHT22;11671;49.990;8.028;2023-11-22T04:45:36;5.90;99.90
23010;DHT22;11671;49.990;8.028;2023-11-22T04:48:03;5.90;99.90
23010;DHT22;11671;49.990;8.028;2023-11-22T04:50:29;5.80;99.90
23010;DHT22;11671;49.990;8.028;2023-11-22T04:52:55;5.80;99.90
23010;DHT22;11671;49.990;8.028;2023-11-22T04:57:48;5.70;99.90
23010;DHT22;11671;49.990;8.028;2023-11-22T05:00:14;5.60;99.90
23010;DHT22;11671;49.990;8.028;2023-11-22T05:02:39;5.70;99.90
23010;DHT22;11671;49.990;8.028;2023-11-22T05:05:05;5.70;99.90
23010;DHT22;11671;49.990;8.028;2023-11-22T05:07:31;5.70;99.90
23010;DHT22;11671;49.990;8.028;2023-11-22T05:09:57;5.70;99.90
23010;DHT22;11671;49.990;8.028;2023-11-22T05:12:22;5.70;99.90
23010;DHT22;11671;49.990;8.028;2023-11-22T05:14:48;5.70;99.90
23010;DHT22;11671;49.990;8.028;2023-11-22T05:17:13;5.70;99.90
23010;DHT22;11671;49.990;8.028;2023-11-22T05:19:39;5.60;99.90
23010;DHT22;11671;49.990;8.028;2023-11-22T05:22:04;5.60;99.90
23010;DHT22;11671;49.990;8.028;2023-11-22T05:24:30;5.50;99.90
23010;DHT22;11671;49.990;8.028;2023-11-22T05:26:55;5.30;99.90
23010;DHT22;11671;49.990;8.028;2023-11-22T05:29:21;5.40;99.90
23010;DHT22;11671;49.990;8.028;2023-11-22T05:31:47;5.50;99.90
23010;DHT22;11671;49.990;8.028;2023-11-22T05:34:12;5.40;99.90
23010;DHT22;11671;49.990;8.028;2023-11-22T05:36:38;5.40;99.90
23010;DHT22;11671;49.990;8.028;2023-11-22T05:39:04;5.50;99.90
23010;DHT22;11671;49.990;8.028;2023-11-22T05:41:29;5.40;99.90
23010;DHT22;11671;49.990;8.028;2023-11-22T05:43:55;5.30;99.90
23010;DHT22;11671;49.990;8.028;2023-11-22T05:46:21;5.40;99.90
23010;DHT22;11671;49.990;8.028;2023-11-22T05:48:50;5.30;99.90
23010;DHT22;11671;49.990;8.028;2023-11-22T05:51:16;5.20;99.90
23010;DHT22;11671;49.990;8.028;2023-11-22T05:53:42;5.20;99.90
23010;DHT22;11671;49.990;8.028;2023-11-22T05:56:07;5.20;99.90
23010;DHT22;11671;49.990;8.028;2023-11-22T05:58:35;5.30;99.90
23010;DHT22;11671;49.990;8.028;2023-11-22T06:01:07;5.20;99.90
23010;DHT22;11671;49.990;8.028;2023-11-22T06:03:32;5.30;99.90
23010;DHT22;11671;49.990;8.028;2023-11-22T06:05:58;5.10;99.90
23010;DHT22;11671;49.990;8.028;2023-11-22T06:08:24;5.10;99.90
23010;DHT22;11671;49.990;8.028;2023-11-22T06:10:50;5.10;99.90
23010;DHT22;11671;49.990;8.028;2023-11-22T06:13:17;5.10;99.90
23010;DHT22;11671;49.990;8.028;2023-11-22T06:15:42;5.00;99.90
23010;DHT22;11671;49.990;8.028;2023-11-22T06:18:08;5.00;99.90
23010;DHT22;11671;49.990;8.028;2023-11-22T06:20:33;5.00;99.90
23010;DHT22;11671;49.990;8.028;2023-11-22T06:22:59;5.00;99.90
23010;DHT22;11671;49.990;8.028;2023-11-22T06:25:24;5.00;99.90
23010;DHT22;11671;49.990;8.028;2023-11-22T06:27:50;5.00;99.90
23010;DHT22;11671;49.990;8.028;2023-11-22T06:30:15;4.90;99.90
23010;DHT22;11671;49.990;8.028;2023-11-22T06:32:41;4.80;99.90
23010;DHT22;11671;49.990;8.028;2023-11-22T06:35:10;4.80;99.90
23010;DHT22;11671;49.990;8.028;2023-11-22T06:37:36;4.80;99.90
23010;DHT22;11671;49.990;8.028;2023-11-22T06:40:03;4.70;99.90
23010;DHT22;11671;49.990;8.028;2023-11-22T06:42:29;4.70;99.90
23010;DHT22;11671;49.990;8.028;2023-11-22T06:44:54;4.60;99.90
23010;DHT22;11671;49.990;8.028;2023-11-22T06:47:23;4.60;99.90
23010;DHT22;11671;49.990;8.028;2023-11-22T06:49:49;4.60;99.90
23010;DHT22;11671;49.990;8.028;2023-11-22T06:52:14;4.60;99.90
23010;DHT22;11671;49.990;8.028;2023-11-22T06:54:40;4.60;99.90
23010;DHT22;11671;49.990;8.028;2023-11-22T06:57:05;4.60;99.90
23010;DHT22;11671;49.990;8.028;2023-11-22T06:59:31;4.50;99.90
23010;DHT22;11671;49.990;8.028;2023-11-22T07:01:56;4.50;99.90
23010;DHT22;11671;49.990;8.028;2023-11-22T07:04:22;4.60;99.90
23010;DHT22;11671;49.990;8.028;2023-11-22T07:06:48;4.60;99.90
23010;DHT22;11671;49.990;8.028;2023-11-22T07:09:14;4.70;99.90
23010;DHT22;11671;49.990;8.028;2023-11-22T07:11:39;4.70;99.90
23010;DHT22;11671;49.990;8.028;2023-11-22T07:14:05;4.70;99.90
23010;DHT22;11671;49.990;8.028;2023-11-22T07:16:31;4.70;99.90
23010;DHT22;11671;49.990;8.028;2023-11-22T07:18:57;4.70;99.90
23010;DHT22;11671;49.990;8.028;2023-11-22T07:21:23;4.70;99.90
23010;DHT22;11671;49.990;8.028;2023-11-22T07:23:48;4.80;99.90
23010;DHT22;11671;49.990;8.028;2023-11-22T07:26:14;4.90;99.90
23010;DHT22;11671;49.990;8.028;2023-11-22T07:28:40;4.90;99.90
23010;DHT22;11671;49.990;8.028;2023-11-22T07:31:09;4.90;99.90
23010;DHT22;11671;49.990;8.028;2023-11-22T07:33:34;4.80;99.90
23010;DHT22;11671;49.990;8.028;2023-11-22T07:36:00;4.80;99.90
23010;DHT22;11671;49.990;8.028;2023-11-22T07:38:25;4.80;99.90
23010;DHT22;11671;49.990;8.028;2023-11-22T07:40:51;4.80;99.90
23010;DHT22;11671;49.990;8.028;2023-11-22T07:43:17;4.80;99.90
23010;DHT22;11671;49.990;8.028;2023-11-22T07:45:42;4.80;99.90
23010;DHT22;11671;49.990;8.028;2023-11-22T07:48:10;4.90;99.90
23010;DHT22;11671;49.990;8.028;2023-11-22T07:50:39;4.90;99.90
23010;DHT22;11671;49.990;8.028;2023-11-22T07:53:09;4.90;99.90
23010;DHT22;11671;49.990;8.028;2023-11-22T07:55:37;5.00;99.90
23010;DHT22;11671;49.990;8.028;2023-11-22T07:58:03;5.00;99.90
23010;DHT22;11671;49.990;8.028;2023-11-22T08:00:28;5.10;99.90
23010;DHT22;11671;49.990;8.028;2023-11-22T08:02:55;5.20;99.90
23010;DHT22;11671;49.990;8.028;2023-11-22T08:05:20;5.30;99.90
23010;DHT22;11671;49.990;8.028;2023-11-22T08:07:48;5.30;99.90
23010;DHT22;11671;49.990;8.028;2023-11-22T08:10:14;5.40;99.90
23010;DHT22;11671;49.990;8.028;2023-11-22T08:12:47;5.30;99.90
23010;DHT22;11671;49.990;8.028;2023-11-22T08:15:15;5.50;99.90
23010;DHT22;11671;49.990;8.028;2023-11-22T08:17:41;5.40;99.90
23010;DHT22;11671;49.990;8.028;2023-11-22T08:20:08;5.50;99.90
23010;DHT22;11671;49.990;8.028;2023-11-22T08:22:38;5.60;99.90
23010;DHT22;11671;49.990;8.028;2023-11-22T08:25:04;5.70;99.90
23010;DHT22;11671;49.990;8.028;2023-11-22T08:27:30;5.70;99.90
23010;DHT22;11671;49.990;8.028;2023-11-22T08:29:56;5.60;99.90
23010;DHT22;11671;49.990;8.028;2023-11-22T08:32:21;5.80;99.90
23010;DHT22;11671;49.990;8.028;2023-11-22T08:34:53;5.90;99.90
23010;DHT22;11671;49.990;8.028;2023-11-22T08:37:18;5.90;99.90
23010;DHT22;11671;49.990;8.028;2023-11-22T08:39:44;6.10;99.90
23010;DHT22;11671;49.990;8.028;2023-11-22T08:42:09;6.20;99.90
23010;DHT22;11671;49.990;8.028;2023-11-22T08:44:38;6.20;99.90
23010;DHT22;11671;49.990;8.028;2023-11-22T08:47:03;6.20;99.90
23010;DHT22;11671;49.990;8.028;2023-11-22T08:49:29;6.30;99.90
23010;DHT22;11671;49.990;8.028;2023-11-22T08:51:56;6.40;99.90
23010;DHT22;11671;49.990;8.028;2023-11-22T08:54:21;6.60;99.90
23010;DHT22;11671;49.990;8.028;2023-11-22T08:56:47;6.90;99.90
23010;DHT22;11671;49.990;8.028;2023-11-22T08:59:12;6.80;99.90
23010;DHT22;11671;49.990;8.028;2023-11-22T09:01:38;6.80;99.90
23010;DHT22;11671;49.990;8.028;2023-11-22T09:04:04;6.70;99.90
23010;DHT22;11671;49.990;8.028;2023-11-22T09:06:29;6.80;99.90
23010;DHT22;11671;49.990;8.028;2023-11-22T09:08:55;6.90;99.90
23010;DHT22;11671;49.990;8.028;2023-11-22T09:11:21;7.10;99.90
23010;DHT22;11671;49.990;8.028;2023-11-22T09:13:48;7.20;99.90
23010;DHT22;11671;49.990;8.028;2023-11-22T09:16:15;7.30;99.90
23010;DHT22;11671;49.990;8.028;2023-11-22T09:18:42;7.40;99.90
23010;DHT22;11671;49.990;8.028;2023-11-22T09:21:08;7.40;99.90
23010;DHT22;11671;49.990;8.028;2023-11-22T09:23:35;7.40;99.90
23010;DHT22;11671;49.990;8.028;2023-11-22T09:26:01;7.40;99.90
23010;DHT22;11671;49.990;8.028;2023-11-22T09:28:28;7.20;99.90
23010;DHT22;11671;49.990;8.028;2023-11-22T09:30:53;7.20;99.90
23010;DHT22;11671;49.990;8.028;2023-11-22T09:33:26;7.20;99.90
23010;DHT22;11671;49.990;8.028;2023-11-22T09:35:52;7.30;99.90
23010;DHT22;11671;49.990;8.028;2023-11-22T09:38:17;7.20;99.90
23010;DHT22;11671;49.990;8.028;2023-11-22T09:40:46;7.00;99.90
23010;DHT22;11671;49.990;8.028;2023-11-22T09:43:12;6.80;99.90
23010;DHT22;11671;49.990;8.028;2023-11-22T09:45:51;6.70;99.90
23010;DHT22;11671;49.990;8.028;2023-11-22T09:48:20;6.50;99.90
23010;DHT22;11671;49.990;8.028;2023-11-22T09:53:17;6.30;99.90
23010;DHT22;11671;49.990;8.028;2023-11-22T09:55:44;6.30;99.90
23010;DHT22;11671;49.990;8.028;2023-11-22T09:58:14;6.20;99.90
23010;DHT22;11671;49.990;8.028;2023-11-22T10:00:41;6.30;99.90
23010;DHT22;11671;49.990;8.028;2023-11-22T10:03:07;6.30;99.90
23010;DHT22;11671;49.990;8.028;2023-11-22T10:05:34;6.40;99.90
23010;DHT22;11671;49.990;8.028;2023-11-22T10:08:00;6.50;99.90
23010;DHT22;11671;49.990;8.028;2023-11-22T10:10:25;6.60;99.90
23010;DHT22;11671;49.990;8.028;2023-11-22T10:12:55;6.80;99.90
23010;DHT22;11671;49.990;8.028;2023-11-22T10:15:27;7.00;99.90
23010;DHT22;11671;49.990;8.028;2023-11-22T10:17:56;7.10;99.90
23010;DHT22;11671;49.990;8.028;2023-11-22T10:20:25;7.20;99.90
23010;DHT22;11671;49.990;8.028;2023-11-22T10:23:00;7.30;99.90
23010;DHT22;11671;49.990;8.028;2023-11-22T10:25:26;7.40;99.90
23010;DHT22;11671;49.990;8.028;2023-11-22T10:27:51;7.40;99.90
23010;DHT22;11671;49.990;8.028;2023-11-22T10:30:17;7.40;99.90
23010;DHT22;11671;49.990;8.028;2023-11-22T10:32:44;7.40;99.90
23010;DHT22;11671;49.990;8.028;2023-11-22T10:35:09;7.20;99.90
23010;DHT22;11671;49.990;8.028;2023-11-22T10:37:36;7.20;99.90
23010;DHT22;11671;49.990;8.028;2023-11-22T10:40:02;7.10;99.90
23010;DHT22;11671;49.990;8.028;2023-11-22T10:42:30;7.00;99.90
23010;DHT22;11671;49.990;8.028;2023-11-22T10:44:56;6.70;99.90
23010;DHT22;11671;49.990;8.028;2023-11-22T10:47:25;6.60;99.90
23010;DHT22;11671;49.990;8.028;2023-11-22T10:49:52;6.60;99.90
23010;DHT22;11671;49.990;8.028;2023-11-22T10:52:17;6.50;99.90
23010;DHT22;11671;49.990;8.028;2023-11-22T10:54:49;6.50;99.90
23010;DHT22;11671;49.990;8.028;2023-11-22T10:57:16;6.60;99.90
23010;DHT22;11671;49.990;8.028;2023-11-22T10:59:44;6.70;99.90
23010;DHT22;11671;49.990;8.028;2023-11-22T11:02:14;6.60;99.90
23010;DHT22;11671;49.990;8.028;2023-11-22T11:04:42;6.50;99.90
23010;DHT22;11671;49.990;8.028;2023-11-22T11:07:08;6.40;99.90
23010;DHT22;11671;49.990;8.028;2023-11-22T11:09:37;6.50;99.90
23010;DHT22;11671;49.990;8.028;2023-11-22T11:12:02;6.50;99.90
23010;DHT22;11671;49.990;8.028;2023-11-22T11:14:29;6.50;99.90
23010;DHT22;11671;49.990;8.028;2023-11-22T11:16:55;6.70;99.90
23010;DHT22;11671;49.990;8.028;2023-11-22T11:19:23;7.00;99.90
23010;DHT22;11671;49.990;8.028;2023-11-22T11:21:50;7.20;99.90
23010;DHT22;11671;49.990;8.028;2023-11-22T11:24:16;7.50;99.90
23010;DHT22;11671;49.990;8.028;2023-11-22T11:26:45;7.90;99.90
23010;DHT22;11671;49.990;8.028;2023-11-22T11:32:12;8.80;99.90
23010;DHT22;11671;49.990;8.028;2023-11-22T11:34:48;8.60;99.90
23010;DHT22;11671;49.990;8.028;2023-11-22T11:37:15;8.40;99.90
23010;DHT22;11671;49.990;8.028;2023-11-22T11:39:40;8.20;99.90
23010;DHT22;11671;49.990;8.028;2023-11-22T11:42:09;8.30;99.90
23010;DHT22;11671;49.990;8.028;2023-11-22T11:44:35;8.20;99.90
23010;DHT22;11671;49.990;8.028;2023-11-22T11:47:08;8.30;99.90
23010;DHT22;11671;49.990;8.028;2023-11-22T11:49:33;8.00;99.90
23010;DHT22;11671;49.990;8.028;2023-11-22T11:52:02;7.80;99.90
23010;DHT22;11671;49.990;8.028;2023-11-22T11:54:28;7.70;99.90
23010;DHT22;11671;49.990;8.028;2023-11-22T11:56:58;7.60;99.90
23010;DHT22;11671;49.990;8.028;2023-11-22T11:59:23;7.60;99.90
23010;DHT22;11671;49.990;8.028;2023-11-22T12:01:52;7.50;99.90
23010;DHT22;11671;49.990;8.028;2023-11-22T12:04:18;7.30;99.90
23010;DHT22;11671;49.990;8.028;2023-11-22T12:06:43;7.30;99.90
23010;DHT22;11671;49.990;8.028;2023-11-22T12:09:09;7.20;99.90
23010;DHT22;11671;49.990;8.028;2023-11-22T12:11:34;7.30;99.90
23010;DHT22;11671;49.990;8.028;2023-11-22T12:14:00;7.30;99.90
23010;DHT22;11671;49.990;8.028;2023-11-22T12:16:28;7.50;99.90
23010;DHT22;11671;49.990;8.028;2023-11-22T12:18:54;7.50;99.90
23010;DHT22;11671;49.990;8.028;2023-11-22T12:21:20;7.50;99.90
23010;DHT22;11671;49.990;8.028;2023-11-22T12:23:46;7.40;99.90
23010;DHT22;11671;49.990;8.028;2023-11-22T12:26:12;7.30;99.90
23010;DHT22;11671;49.990;8.028;2023-11-22T12:28:39;7.30;99.90
23010;DHT22;11671;49.990;8.028;2023-11-22T12:31:11;7.50;99.90
23010;DHT22;11671;49.990;8.028;2023-11-22T12:33:37;7.60;99.90
23010;DHT22;11671;49.990;8.028;2023-11-22T12:36:05;7.70;99.90
23010;DHT22;11671;49.990;8.028;2023-11-22T12:38:30;7.80;99.90
23010;DHT22;11671;49.990;8.028;2023-11-22T12:40:57;7.90;99.90
23010;DHT22;11671;49.990;8.028;2023-11-22T12:43:23;7.80;99.90
23010;DHT22;11671;49.990;8.028;2023-11-22T12:46:04;7.80;99.90
23010;DHT22;11671;49.990;8.028;2023-11-22T12:48:32;7.90;99.90
23010;DHT22;11671;49.990;8.028;2023-11-22T12:50:58;7.90;99.90
23010;DHT22;11671;49.990;8.028;2023-11-22T12:53:24;7.70;99.90
23010;DHT22;11671;49.990;8.028;2023-11-22T12:55:59;7.50;99.90
23010;DHT22;11671;49.990;8.028;2023-11-22T12:58:25;7.40;99.90
23010;DHT22;11671;49.990;8.028;2023-11-22T13:00:53;7.40;99.90
23010;DHT22;11671;49.990;8.028;2023-11-22T13:03:26;7.40;99.90
23010;DHT22;11671;49.990;8.028;2023-11-22T13:05:52;7.30;99.90
23010;DHT22;11671;49.990;8.028;2023-11-22T13:08:17;7.30;99.90
23010;DHT22;11671;49.990;8.028;2023-11-22T13:10:44;7.50;99.90
23010;DHT22;11671;49.990;8.028;2023-11-22T13:13:10;7.50;99.90
23010;DHT22;11671;49.990;8.028;2023-11-22T13:15:35;7.50;99.90
23010;DHT22;11671;49.990;8.028;2023-11-22T13:18:01;7.60;99.90
23010;DHT22;11671;49.990;8.028;2023-11-22T13:20:27;7.70;99.90
23010;DHT22;11671;49.990;8.028;2023-11-22T13:22:53;7.70;99.90
23010;DHT22;11671;49.990;8.028;2023-11-22T13:25:19;7.70;99.90
23010;DHT22;11671;49.990;8.028;2023-11-22T13:27:45;7.60;99.90
23010;DHT22;11671;49.990;8.028;2023-11-22T13:30:12;7.60;99.90
23010;DHT22;11671;49.990;8.028;2023-11-22T13:32:37;7.60;99.90
23010;DHT22;11671;49.990;8.028;2023-11-22T13:35:04;7.50;99.90
23010;DHT22;11671;49.990;8.028;2023-11-22T13:37:37;7.50;99.90
23010;DHT22;11671;49.990;8.028;2023-11-22T13:40:02;7.40;99.90
23010;DHT22;11671;49.990;8.028;2023-11-22T13:42:28;7.40;99.90
23010;DHT22;11671;49.990;8.028;2023-11-22T13:44:53;7.40;99.90
23010;DHT22;11671;49.990;8.028;2023-11-22T13:47:19;7.40;99.90
23010;DHT22;11671;49.990;8.028;2023-11-22T13:49:44;7.40;99.90
23010;DHT22;11671;49.990;8.028;2023-11-22T13:52:10;7.40;99.90
23010;DHT22;11671;49.990;8.028;2023-11-22T13:54:36;7.30;99.90
23010;DHT22;11671;49.990;8.028;2023-11-22T13:57:04;7.40;99.90
23010;DHT22;11671;49.990;8.028;2023-11-22T13:59:30;7.40;99.90
23010;DHT22;11671;49.990;8.028;2023-11-22T14:01:55;7.40;99.90
23010;DHT22;11671;49.990;8.028;2023-11-22T14:04:21;7.40;99.90
23010;DHT22;11671;49.990;8.028;2023-11-22T14:06:46;7.30;99.90
23010;DHT22;11671;49.990;8.028;2023-11-22T14:09:12;7.20;99.90
23010;DHT22;11671;49.990;8.028;2023-11-22T14:11:39;7.20;99.90
23010;DHT22;11671;49.990;8.028;2023-11-22T14:14:05;7.10;99.90
23010;DHT22;11671;49.990;8.028;2023-11-22T14:16:31;7.10;99.90
23010;DHT22;11671;49.990;8.028;2023-11-22T14:18:56;7.10;99.90
23010;DHT22;11671;49.990;8.028;2023-11-22T14:21:23;7.20;99.90
23010;DHT22;11671;49.990;8.028;2023-11-22T14:23:50;7.20;99.90
23010;DHT22;11671;49.990;8.028;2023-11-22T14:26:15;7.20;99.90
23010;DHT22;11671;49.990;8.028;2023-11-22T14:28:41;7.30;99.90
23010;DHT22;11671;49.990;8.028;2023-11-22T14:31:08;7.30;99.90
23010;DHT22;11671;49.990;8.028;2023-11-22T14:33:34;7.30;99.90
23010;DHT22;11671;49.990;8.028;2023-11-22T14:36:00;7.30;99.90
23010;DHT22;11671;49.990;8.028;2023-11-22T14:38:26;7.20;99.90
23010;DHT22;11671;49.990;8.028;2023-11-22T14:40:51;7.20;99.90
23010;DHT22;11671;49.990;8.028;2023-11-22T14:43:17;7.10;99.90
23010;DHT22;11671;49.990;8.028;2023-11-22T14:45:43;7.00;99.90
23010;DHT22;11671;49.990;8.028;2023-11-22T14:48:08;7.00;99.90
23010;DHT22;11671;49.990;8.028;2023-11-22T14:50:34;6.90;99.90
23010;DHT22;11671;49.990;8.028;2023-11-22T14:53:00;6.90;99.90
23010;DHT22;11671;49.990;8.028;2023-11-22T14:55:26;6.90;99.90
23010;DHT22;11671;49.990;8.028;2023-11-22T14:57:51;6.80;99.90
23010;DHT22;11671;49.990;8.028;2023-11-22T15:00:19;6.70;99.90
23010;DHT22;11671;49.990;8.028;2023-11-22T15:02:45;6.60;99.90
23010;DHT22;11671;49.990;8.028;2023-11-22T15:05:18;6.50;99.90
23010;DHT22;11671;49.990;8.028;2023-11-22T15:07:44;6.40;99.90
23010;DHT22;11671;49.990;8.028;2023-11-22T15:10:10;6.40;99.90
23010;DHT22;11671;49.990;8.028;2023-11-22T15:12:36;6.30;99.90
23010;DHT22;11671;49.990;8.028;2023-11-22T15:15:02;6.30;99.90
23010;DHT22;11671;49.990;8.028;2023-11-22T15:17:27;6.20;99.90
23010;DHT22;11671;49.990;8.028;2023-11-22T15:19:54;6.20;99.90
23010;DHT22;11671;49.990;8.028;2023-11-22T15:22:19;6.20;99.90
23010;DHT22;11671;49.990;8.028;2023-11-22T15:24:45;6.10;99.90
23010;DHT22;11671;49.990;8.028;2023-11-22T15:27:10;6.10;99.90
23010;DHT22;11671;49.990;8.028;2023-11-22T15:29:36;6.10;99.90
23010;DHT22;11671;49.990;8.028;2023-11-22T15:32:01;6.00;99.90
23010;DHT22;11671;49.990;8.028;2023-11-22T15:34:28;6.00;99.90
23010;DHT22;11671;49.990;8.028;2023-11-22T15:36:53;6.00;99.90
23010;DHT22;11671;49.990;8.028;2023-11-22T15:39:19;6.00;99.90
23010;DHT22;11671;49.990;8.028;2023-11-22T15:41:47;6.00;99.90
23010;DHT22;11671;49.990;8.028;2023-11-22T15:44:13;6.00;99.90
23010;DHT22;11671;49.990;8.028;2023-11-22T15:46:39;6.00;99.90